sensor_id;sensor_type;location;lat;lon;timestamp;pressure;altitude;pressure_sealevel;temperature;humidity
29385;BME280;16367;48.736;9.218;2023-09-19T00:00:46;-23680.16;;;16.23;100.00
29385;BME280;16367;48.736;9.218;2023-09-19T00:02:53;-23679.38;;;16.21;100.00
29385;BME280;16367;48.736;9.218;2023-09-19T00:04:56;-23680.00;;;16.23;100.00
29385;BME280;16367;48.736;9.218;2023-09-19T00:06:59;-23675.44;;;16.08;100.00
29385;BME280;16367;48.736;9.218;2023-09-19T00:09:04;-23674.66;;;16.06;100.00
29385;BME280;16367;48.736;9.218;2023-09-19T00:11:11;-23674.19;;;16.04;100.00
29385;BME280;16367;48.736;9.218;2023-09-19T00:13:15;-23671.34;;;15.95;100.00
29385;BME280;16367;48.736;9.218;2023-09-19T00:15:17;-23669.63;;;15.90;100.00
29385;BME280;16367;48.736;9.218;2023-09-19T00:17:21;-23668.97;;;15.88;100.00
29385;BME280;16367;48.736;9.218;2023-09-19T00:19:24;-23670.56;;;15.93;100.00
29385;BME280;16367;48.736;9.218;2023-09-19T00:21:27;-23669.94;;;15.91;100.00
29385;BME280;16367;48.736;9.218;2023-09-19T00:23:30;-23667.41;;;15.83;100.00
29385;BME280;16367;48.736;9.218;2023-09-19T00:25:34;-23666.16;;;15.79;100.00
29385;BME280;16367;48.736;9.218;2023-09-19T00:27:39;-23668.34;;;15.86;100.00
29385;BME280;16367;48.736;9.218;2023-09-19T00:29:43;-23665.19;;;15.76;100.00
29385;BME280;16367;48.736;9.218;2023-09-19T00:31:46;-23666.47;;;15.80;100.00
29385;BME280;16367;48.736;9.218;2023-09-19T00:33:51;-23667.41;;;15.83;100.00
29385;BME280;16367;48.736;9.218;2023-09-19T00:35:56;-23667.72;;;15.84;100.00
29385;BME280;16367;48.736;9.218;2023-09-19T00:37:59;-23665.81;;;15.78;100.00
29385;BME280;16367;48.736;9.218;2023-09-19T00:40:03;-23666.63;;;15.80;100.00
29385;BME280;16367;48.736;9.218;2023-09-19T00:42:07;-23666.47;;;15.80;100.00
29385;BME280;16367;48.736;9.218;2023-09-19T00:44:09;-23668.66;;;15.87;100.00
29385;BME280;16367;48.736;9.218;2023-09-19T00:46:16;-23667.56;;;15.83;100.00
29385;BME280;16367;48.736;9.218;2023-09-19T00:48:19;-23666.63;;;15.80;100.00
29385;BME280;16367;48.736;9.218;2023-09-19T00:50:24;-23667.25;;;15.82;100.00
29385;BME280;16367;48.736;9.218;2023-09-19T00:52:28;-23666.31;;;15.79;100.00
29385;BME280;16367;48.736;9.218;2023-09-19T00:54:31;-23667.09;;;15.82;100.00
29385;BME280;16367;48.736;9.218;2023-09-19T00:56:35;-23668.34;;;15.86;100.00
29385;BME280;16367;48.736;9.218;2023-09-19T00:58:39;-23668.97;;;15.88;100.00
29385;BME280;16367;48.736;9.218;2023-09-19T01:00:42;-23667.56;;;15.83;100.00
29385;BME280;16367;48.736;9.218;2023-09-19T01:02:46;-23667.56;;;15.83;100.00
29385;BME280;16367;48.736;9.218;2023-09-19T01:04:49;-23669.28;;;15.89;100.00
29385;BME280;16367;48.736;9.218;2023-09-19T01:06:54;-23669.13;;;15.88;100.00
29385;BME280;16367;48.736;9.218;2023-09-19T01:08:57;-23672.13;;;15.98;100.00
29385;BME280;16367;48.736;9.218;2023-09-19T01:11:06;-23669.94;;;15.91;100.00
29385;BME280;16367;48.736;9.218;2023-09-19T01:13:17;-23669.63;;;15.90;100.00
29385;BME280;16367;48.736;9.218;2023-09-19T01:15:35;-23670.56;;;15.93;100.00
29385;BME280;16367;48.736;9.218;2023-09-19T01:17:45;-23672.28;;;15.98;100.00
29385;BME280;16367;48.736;9.218;2023-09-19T01:20:24;-23669.94;;;15.91;100.00
29385;BME280;16367;48.736;9.218;2023-09-19T01:22:37;-23673.22;;;16.01;100.00
29385;BME280;16367;48.736;9.218;2023-09-19T01:25:02;-23671.50;;;15.96;100.00
29385;BME280;16367;48.736;9.218;2023-09-19T01:27:27;-23669.63;;;15.90;100.00
29385;BME280;16367;48.736;9.218;2023-09-19T01:29:39;-23672.28;;;15.98;100.00
29385;BME280;16367;48.736;9.218;2023-09-19T01:31:47;-23671.19;;;15.95;100.00
29385;BME280;16367;48.736;9.218;2023-09-19T01:33:59;-23672.44;;;15.99;100.00
29385;BME280;16367;48.736;9.218;2023-09-19T01:36:02;-23673.41;;;16.02;100.00
29385;BME280;16367;48.736;9.218;2023-09-19T01:38:05;-23673.72;;;16.03;100.00
29385;BME280;16367;48.736;9.218;2023-09-19T01:40:10;-23675.44;;;16.08;100.00
29385;BME280;16367;48.736;9.218;2023-09-19T01:42:27;-23677.19;;;16.14;100.00
29385;BME280;16367;48.736;9.218;2023-09-19T01:44:51;-23674.81;;;16.06;100.00
29385;BME280;16367;48.736;9.218;2023-09-19T01:46:58;-23677.50;;;16.15;100.00
29385;BME280;16367;48.736;9.218;2023-09-19T01:49:15;-23675.91;;;16.10;100.00
29385;BME280;16367;48.736;9.218;2023-09-19T01:51:31;-23674.66;;;16.06;100.00
29385;BME280;16367;48.736;9.218;2023-09-19T01:53:37;-23673.41;;;16.02;100.00
29385;BME280;16367;48.736;9.218;2023-09-19T01:55:47;-23673.72;;;16.03;100.00
29385;BME280;16367;48.736;9.218;2023-09-19T01:57:55;-23675.28;;;16.08;100.00
29385;BME280;16367;48.736;9.218;2023-09-19T02:00:04;-23676.38;;;16.11;100.00
29385;BME280;16367;48.736;9.218;2023-09-19T02:02:10;-23675.13;;;16.07;100.00
29385;BME280;16367;48.736;9.218;2023-09-19T02:04:14;-23673.09;;;16.01;100.00
29385;BME280;16367;48.736;9.218;2023-09-19T02:06:18;-23671.66;;;15.96;100.00
29385;BME280;16367;48.736;9.218;2023-09-19T02:08:23;-23670.25;;;15.92;100.00
29385;BME280;16367;48.736;9.218;2023-09-19T02:10:26;-23671.19;;;15.95;100.00
29385;BME280;16367;48.736;9.218;2023-09-19T02:12:29;-23671.66;;;15.96;100.00
29385;BME280;16367;48.736;9.218;2023-09-19T02:14:32;-23674.50;;;16.05;100.00
29385;BME280;16367;48.736;9.218;2023-09-19T02:16:35;-23675.28;;;16.08;100.00
29385;BME280;16367;48.736;9.218;2023-09-19T02:18:40;-23670.88;;;15.94;100.00
29385;BME280;16367;48.736;9.218;2023-09-19T02:20:43;-23672.13;;;15.98;100.00
29385;BME280;16367;48.736;9.218;2023-09-19T02:22:45;-23672.13;;;15.98;100.00
29385;BME280;16367;48.736;9.218;2023-09-19T02:24:47;-23679.69;;;16.22;100.00
29385;BME280;16367;48.736;9.218;2023-09-19T02:26:50;-23677.50;;;16.15;100.00
29385;BME280;16367;48.736;9.218;2023-09-19T02:28:54;-23674.97;;;16.07;100.00
29385;BME280;16367;48.736;9.218;2023-09-19T02:30:57;-23672.13;;;15.98;100.00
29385;BME280;16367;48.736;9.218;2023-09-19T02:33:00;-23672.28;;;15.98;100.00
29385;BME280;16367;48.736;9.218;2023-09-19T02:35:07;-23672.13;;;15.98;100.00
29385;BME280;16367;48.736;9.218;2023-09-19T02:37:13;-23674.81;;;16.06;100.00
29385;BME280;16367;48.736;9.218;2023-09-19T02:39:17;-23671.97;;;15.97;100.00
29385;BME280;16367;48.736;9.218;2023-09-19T02:41:21;-23670.56;;;15.93;100.00
29385;BME280;16367;48.736;9.218;2023-09-19T02:43:24;-23671.19;;;15.95;100.00
29385;BME280;16367;48.736;9.218;2023-09-19T02:45:27;-23671.19;;;15.95;100.00
29385;BME280;16367;48.736;9.218;2023-09-19T02:47:31;-23669.28;;;15.89;100.00
29385;BME280;16367;48.736;9.218;2023-09-19T02:49:34;-23668.34;;;15.86;100.00
29385;BME280;16367;48.736;9.218;2023-09-19T02:51:38;-23667.09;;;15.82;100.00
29385;BME280;16367;48.736;9.218;2023-09-19T02:53:41;-23664.88;;;15.75;100.00
29385;BME280;16367;48.736;9.218;2023-09-19T02:55:43;-23665.03;;;15.75;100.00
29385;BME280;16367;48.736;9.218;2023-09-19T02:57:48;-23662.34;;;15.66;100.00
29385;BME280;16367;48.736;9.218;2023-09-19T02:59:50;-23662.34;;;15.66;100.00
29385;BME280;16367;48.736;9.218;2023-09-19T03:01:53;-23666.78;;;15.81;100.00
29385;BME280;16367;48.736;9.218;2023-09-19T03:03:56;-23666.47;;;15.80;100.00
29385;BME280;16367;48.736;9.218;2023-09-19T03:05:58;-23667.09;;;15.82;100.00
29385;BME280;16367;48.736;9.218;2023-09-19T03:08:02;-23666.16;;;15.79;100.00
29385;BME280;16367;48.736;9.218;2023-09-19T03:10:07;-23666.78;;;15.81;100.00
29385;BME280;16367;48.736;9.218;2023-09-19T03:12:09;-23670.25;;;15.92;100.00
29385;BME280;16367;48.736;9.218;2023-09-19T03:14:12;-23668.34;;;15.86;100.00
29385;BME280;16367;48.736;9.218;2023-09-19T03:16:16;-23667.09;;;15.82;100.00
29385;BME280;16367;48.736;9.218;2023-09-19T03:18:20;-23668.03;;;15.85;100.00
29385;BME280;16367;48.736;9.218;2023-09-19T03:20:24;-23668.50;;;15.86;100.00
29385;BME280;16367;48.736;9.218;2023-09-19T03:22:29;-23668.03;;;15.85;100.00
29385;BME280;16367;48.736;9.218;2023-09-19T03:24:33;-23665.50;;;15.77;100.00
29385;BME280;16367;48.736;9.218;2023-09-19T03:26:37;-23665.81;;;15.78;100.00
29385;BME280;16367;48.736;9.218;2023-09-19T03:28:39;-23665.50;;;15.77;100.00
29385;BME280;16367;48.736;9.218;2023-09-19T03:30:43;-23663.31;;;15.70;100.00
29385;BME280;16367;48.736;9.218;2023-09-19T03:32:47;-23663.47;;;15.70;100.00
29385;BME280;16367;48.736;9.218;2023-09-19T03:34:52;-23666.94;;;15.81;100.00
29385;BME280;16367;48.736;9.218;2023-09-19T03:36:55;-23663.31;;;15.70;100.00
29385;BME280;16367;48.736;9.218;2023-09-19T03:38:58;-23665.50;;;15.77;100.00
29385;BME280;16367;48.736;9.218;2023-09-19T03:41:02;-23664.25;;;15.73;100.00
29385;BME280;16367;48.736;9.218;2023-09-19T03:43:05;-23665.19;;;15.76;100.00
29385;BME280;16367;48.736;9.218;2023-09-19T03:45:08;-23664.72;;;15.74;100.00
29385;BME280;16367;48.736;9.218;2023-09-19T03:47:13;-23664.72;;;15.74;100.00
29385;BME280;16367;48.736;9.218;2023-09-19T03:49:16;-23662.34;;;15.66;100.00
29385;BME280;16367;48.736;9.218;2023-09-19T03:51:20;-23661.09;;;15.62;100.00
29385;BME280;16367;48.736;9.218;2023-09-19T03:53:25;-23662.69;;;15.68;100.00
29385;BME280;16367;48.736;9.218;2023-09-19T03:55:28;-23662.69;;;15.68;100.00
29385;BME280;16367;48.736;9.218;2023-09-19T03:57:33;-23661.25;;;15.63;100.00
29385;BME280;16367;48.736;9.218;2023-09-19T03:59:37;-23663.00;;;15.68;100.00
29385;BME280;16367;48.736;9.218;2023-09-19T04:01:40;-23664.25;;;15.73;100.00
29385;BME280;16367;48.736;9.218;2023-09-19T04:03:43;-23663.31;;;15.70;100.00
29385;BME280;16367;48.736;9.218;2023-09-19T04:05:49;-23662.03;;;15.65;100.00
29385;BME280;16367;48.736;9.218;2023-09-19T04:07:52;-23660.94;;;15.62;100.00
29385;BME280;16367;48.736;9.218;2023-09-19T04:09:55;-23661.72;;;15.64;100.00
29385;BME280;16367;48.736;9.218;2023-09-19T04:11:57;-23663.00;;;15.68;100.00
29385;BME280;16367;48.736;9.218;2023-09-19T04:14:03;-23659.84;;;15.58;100.00
29385;BME280;16367;48.736;9.218;2023-09-19T04:16:06;-23660.16;;;15.59;100.00
29385;BME280;16367;48.736;9.218;2023-09-19T04:18:09;-23658.25;;;15.53;100.00
29385;BME280;16367;48.736;9.218;2023-09-19T04:20:12;-23661.09;;;15.62;100.00
29385;BME280;16367;48.736;9.218;2023-09-19T04:22:15;-23658.25;;;15.53;100.00
29385;BME280;16367;48.736;9.218;2023-09-19T04:24:17;-23657.31;;;15.50;100.00
29385;BME280;16367;48.736;9.218;2023-09-19T04:26:21;-23657.00;;;15.49;100.00
29385;BME280;16367;48.736;9.218;2023-09-19T04:28:24;-23659.53;;;15.57;100.00
29385;BME280;16367;48.736;9.218;2023-09-19T04:30:30;-23661.25;;;15.63;100.00
29385;BME280;16367;48.736;9.218;2023-09-19T04:32:33;-23660.16;;;15.59;100.00
29385;BME280;16367;48.736;9.218;2023-09-19T04:34:37;-23663.63;;;15.71;100.00
29385;BME280;16367;48.736;9.218;2023-09-19T04:36:40;-23663.63;;;15.71;100.00
29385;BME280;16367;48.736;9.218;2023-09-19T04:38:43;-23663.31;;;15.70;100.00
29385;BME280;16367;48.736;9.218;2023-09-19T04:40:47;-23663.94;;;15.72;100.00
29385;BME280;16367;48.736;9.218;2023-09-19T04:42:53;-23666.63;;;15.80;100.00
29385;BME280;16367;48.736;9.218;2023-09-19T04:44:57;-23664.41;;;15.73;100.00
29385;BME280;16367;48.736;9.218;2023-09-19T04:47:02;-23666.16;;;15.79;100.00
29385;BME280;16367;48.736;9.218;2023-09-19T04:49:05;-23666.47;;;15.80;100.00
29385;BME280;16367;48.736;9.218;2023-09-19T04:51:08;-23664.88;;;15.75;100.00
29385;BME280;16367;48.736;9.218;2023-09-19T04:53:11;-23668.34;;;15.86;100.00
29385;BME280;16367;48.736;9.218;2023-09-19T04:55:15;-23669.28;;;15.89;100.00
29385;BME280;16367;48.736;9.218;2023-09-19T04:57:19;-23667.72;;;15.84;100.00
29385;BME280;16367;48.736;9.218;2023-09-19T04:59:21;-23668.66;;;15.87;100.00
29385;BME280;16367;48.736;9.218;2023-09-19T05:01:24;-23668.97;;;15.88;100.00
29385;BME280;16367;48.736;9.218;2023-09-19T05:03:31;-23666.47;;;15.80;100.00
29385;BME280;16367;48.736;9.218;2023-09-19T05:05:33;-23669.63;;;15.90;100.00
29385;BME280;16367;48.736;9.218;2023-09-19T05:07:36;-23664.41;;;15.73;100.00
29385;BME280;16367;48.736;9.218;2023-09-19T05:09:38;-23666.78;;;15.81;100.00
29385;BME280;16367;48.736;9.218;2023-09-19T05:11:41;-23667.72;;;15.84;100.00
29385;BME280;16367;48.736;9.218;2023-09-19T05:13:45;-23661.72;;;15.64;100.00
29385;BME280;16367;48.736;9.218;2023-09-19T05:15:48;-23655.41;;;15.44;100.00
29385;BME280;16367;48.736;9.218;2023-09-19T05:17:51;-23656.84;;;15.49;100.00
29385;BME280;16367;48.736;9.218;2023-09-19T05:20:00;-23653.84;;;15.39;100.00
29385;BME280;16367;48.736;9.218;2023-09-19T05:22:17;-23651.16;;;15.31;100.00
29385;BME280;16367;48.736;9.218;2023-09-19T05:24:20;-23655.91;;;15.46;100.00
29385;BME280;16367;48.736;9.218;2023-09-19T05:26:24;-23649.44;;;15.25;100.00
29385;BME280;16367;48.736;9.218;2023-09-19T05:28:27;-23648.63;;;15.23;100.00
29385;BME280;16367;48.736;9.218;2023-09-19T05:30:29;-23645.97;;;15.14;100.00
29385;BME280;16367;48.736;9.218;2023-09-19T05:32:32;-23648.16;;;15.21;100.00
29385;BME280;16367;48.736;9.218;2023-09-19T05:34:35;-23648.00;;;15.21;100.00
29385;BME280;16367;48.736;9.218;2023-09-19T05:36:39;-23651.63;;;15.32;100.00
29385;BME280;16367;48.736;9.218;2023-09-19T05:38:42;-23648.47;;;15.22;100.00
29385;BME280;16367;48.736;9.218;2023-09-19T05:40:46;-23645.66;;;15.13;100.00
29385;BME280;16367;48.736;9.218;2023-09-19T05:42:49;-23647.84;;;15.20;100.00
29385;BME280;16367;48.736;9.218;2023-09-19T05:44:52;-23647.53;;;15.19;100.00
29385;BME280;16367;48.736;9.218;2023-09-19T05:46:55;-23651.00;;;15.30;100.00
29385;BME280;16367;48.736;9.218;2023-09-19T05:48:58;-23648.31;;;15.22;100.00
29385;BME280;16367;48.736;9.218;2023-09-19T05:51:01;-23647.22;;;15.18;100.00
29385;BME280;16367;48.736;9.218;2023-09-19T05:53:05;-23651.94;;;15.33;100.00
29385;BME280;16367;48.736;9.218;2023-09-19T05:55:08;-23650.69;;;15.29;100.00
29385;BME280;16367;48.736;9.218;2023-09-19T05:57:09;-23656.38;;;15.47;100.00
29385;BME280;16367;48.736;9.218;2023-09-19T05:59:13;-23654.31;;;15.41;100.00
29385;BME280;16367;48.736;9.218;2023-09-19T06:01:17;-23656.06;;;15.46;100.00
29385;BME280;16367;48.736;9.218;2023-09-19T06:03:20;-23661.09;;;15.62;100.00
29385;BME280;16367;48.736;9.218;2023-09-19T06:05:23;-23657.47;;;15.51;100.00
29385;BME280;16367;48.736;9.218;2023-09-19T06:07:25;-23655.09;;;15.43;100.00
29385;BME280;16367;48.736;9.218;2023-09-19T06:09:38;-23647.53;;;15.19;100.00
29385;BME280;16367;48.736;9.218;2023-09-19T06:11:41;-23649.13;;;15.24;100.00
29385;BME280;16367;48.736;9.218;2023-09-19T06:13:44;-23643.13;;;15.05;100.00
29385;BME280;16367;48.736;9.218;2023-09-19T06:15:48;-23647.38;;;15.19;100.00
29385;BME280;16367;48.736;9.218;2023-09-19T06:17:52;-23643.75;;;15.07;100.00
29385;BME280;16367;48.736;9.218;2023-09-19T06:19:58;-23647.22;;;15.18;100.00
29385;BME280;16367;48.736;9.218;2023-09-19T06:22:00;-23643.44;;;15.06;100.00
29385;BME280;16367;48.736;9.218;2023-09-19T06:24:04;-23646.91;;;15.17;100.00
29385;BME280;16367;48.736;9.218;2023-09-19T06:26:08;-23648.78;;;15.23;100.00
29385;BME280;16367;48.736;9.218;2023-09-19T06:28:11;-23647.06;;;15.18;100.00
29385;BME280;16367;48.736;9.218;2023-09-19T06:30:15;-23649.59;;;15.26;100.00
29385;BME280;16367;48.736;9.218;2023-09-19T06:32:17;-23651.00;;;15.30;100.00
29385;BME280;16367;48.736;9.218;2023-09-19T06:34:20;-23645.97;;;15.14;100.00
29385;BME280;16367;48.736;9.218;2023-09-19T06:36:23;-23640.91;;;14.98;100.00
29385;BME280;16367;48.736;9.218;2023-09-19T06:38:25;-23645.31;;;15.12;100.00
29385;BME280;16367;48.736;9.218;2023-09-19T06:40:27;-23638.53;;;14.90;100.00
29385;BME280;16367;48.736;9.218;2023-09-19T06:42:33;-23643.28;;;15.06;100.00
29385;BME280;16367;48.736;9.218;2023-09-19T06:44:38;-23639.34;;;14.93;100.00
29385;BME280;16367;48.736;9.218;2023-09-19T06:46:41;-23641.22;;;14.99;100.00
29385;BME280;16367;48.736;9.218;2023-09-19T06:48:45;-23646.44;;;15.16;100.00
29385;BME280;16367;48.736;9.218;2023-09-19T06:50:49;-23647.38;;;15.19;100.00
29385;BME280;16367;48.736;9.218;2023-09-19T06:52:53;-23646.44;;;15.16;100.00
29385;BME280;16367;48.736;9.218;2023-09-19T06:54:58;-23651.78;;;15.33;100.00
29385;BME280;16367;48.736;9.218;2023-09-19T06:57:01;-23655.41;;;15.44;100.00
29385;BME280;16367;48.736;9.218;2023-09-19T06:59:05;-23654.16;;;15.40;100.00
29385;BME280;16367;48.736;9.218;2023-09-19T07:01:08;-23657.31;;;15.50;100.00
29385;BME280;16367;48.736;9.218;2023-09-19T07:03:13;-23657.31;;;15.50;100.00
29385;BME280;16367;48.736;9.218;2023-09-19T07:05:17;-23664.25;;;15.73;100.00
29385;BME280;16367;48.736;9.218;2023-09-19T07:07:20;-23661.25;;;15.63;100.00
29385;BME280;16367;48.736;9.218;2023-09-19T07:09:23;-23676.56;;;16.12;100.00
29385;BME280;16367;48.736;9.218;2023-09-19T07:11:29;-23684.25;;;16.36;100.00
29385;BME280;16367;48.736;9.218;2023-09-19T07:13:32;-23694.66;;;16.70;100.00
29385;BME280;16367;48.736;9.218;2023-09-19T07:15:37;-23692.47;;;16.63;100.00
29385;BME280;16367;48.736;9.218;2023-09-19T07:17:41;-23684.13;;;16.36;100.00
29385;BME280;16367;48.736;9.218;2023-09-19T07:19:44;-23675.44;;;16.08;100.00
29385;BME280;16367;48.736;9.218;2023-09-19T07:21:47;-23686.63;;;16.44;100.00
29385;BME280;16367;48.736;9.218;2023-09-19T07:23:52;-23682.22;;;16.30;100.00
29385;BME280;16367;48.736;9.218;2023-09-19T07:25:56;-23690.41;;;16.56;100.00
29385;BME280;16367;48.736;9.218;2023-09-19T07:27:59;-23688.03;;;16.49;100.00
29385;BME280;16367;48.736;9.218;2023-09-19T07:30:03;-23689.78;;;16.54;100.00
29385;BME280;16367;48.736;9.218;2023-09-19T07:32:08;-23688.22;;;16.49;100.00
29385;BME280;16367;48.736;9.218;2023-09-19T07:34:11;-23697.97;;;16.80;100.00
29385;BME280;16367;48.736;9.218;2023-09-19T07:36:13;-23694.34;;;16.69;100.00
29385;BME280;16367;48.736;9.218;2023-09-19T07:38:16;-23698.59;;;16.82;100.00
29385;BME280;16367;48.736;9.218;2023-09-19T07:40:19;-23686.63;;;16.44;100.00
29385;BME280;16367;48.736;9.218;2023-09-19T07:42:23;-23690.88;;;16.58;100.00
29385;BME280;16367;48.736;9.218;2023-09-19T07:44:25;-23690.88;;;16.58;100.00
29385;BME280;16367;48.736;9.218;2023-09-19T07:46:28;-23696.41;;;16.75;100.00
29385;BME280;16367;48.736;9.218;2023-09-19T07:48:34;-23708.53;;;17.14;100.00
29385;BME280;16367;48.736;9.218;2023-09-19T07:50:37;-23704.59;;;17.01;100.00
29385;BME280;16367;48.736;9.218;2023-09-19T07:52:41;-23703.97;;;16.99;100.00
29385;BME280;16367;48.736;9.218;2023-09-19T07:54:44;-23715.44;;;17.36;100.00
29385;BME280;16367;48.736;9.218;2023-09-19T07:56:50;-23715.59;;;17.37;100.00
29385;BME280;16367;48.736;9.218;2023-09-19T07:58:53;-23712.78;;;17.28;100.00
29385;BME280;16367;48.736;9.218;2023-09-19T08:00:56;-23720.81;;;17.53;100.00
29385;BME280;16367;48.736;9.218;2023-09-19T08:02:59;-23719.38;;;17.49;100.00
29385;BME280;16367;48.736;9.218;2023-09-19T08:05:11;-23724.09;;;17.64;100.00
29385;BME280;16367;48.736;9.218;2023-09-19T08:07:16;-23713.09;;;17.29;100.00
29385;BME280;16367;48.736;9.218;2023-09-19T08:09:19;-23717.19;;;17.42;100.00
29385;BME280;16367;48.736;9.218;2023-09-19T08:11:26;-23727.88;;;17.76;100.00
29385;BME280;16367;48.736;9.218;2023-09-19T08:13:32;-23729.78;;;17.82;100.00
29385;BME280;16367;48.736;9.218;2023-09-19T08:15:35;-23736.06;;;18.02;100.00
29385;BME280;16367;48.736;9.218;2023-09-19T08:17:40;-23731.66;;;17.88;100.00
29385;BME280;16367;48.736;9.218;2023-09-19T08:19:43;-23740.47;;;18.16;100.00
29385;BME280;16367;48.736;9.218;2023-09-19T08:21:49;-23737.78;;;18.08;100.00
29385;BME280;16367;48.736;9.218;2023-09-19T08:23:52;-23736.69;;;18.04;100.00
29385;BME280;16367;48.736;9.218;2023-09-19T08:25:58;-23744.09;;;18.28;100.00
29385;BME280;16367;48.736;9.218;2023-09-19T08:28:04;-23755.88;;;18.66;100.00
29385;BME280;16367;48.736;9.218;2023-09-19T08:30:10;-23735.13;;;17.99;100.00
29385;BME280;16367;48.736;9.218;2023-09-19T08:32:13;-23742.34;;;18.22;100.00
29385;BME280;16367;48.736;9.218;2023-09-19T08:34:17;-23736.69;;;18.04;100.00
29385;BME280;16367;48.736;9.218;2023-09-19T08:36:19;-23748.94;;;18.43;100.00
29385;BME280;16367;48.736;9.218;2023-09-19T08:38:23;-23741.72;;;18.20;100.00
29385;BME280;16367;48.736;9.218;2023-09-19T08:40:30;-23765.47;;;18.96;100.00
29385;BME280;16367;48.736;9.218;2023-09-19T08:42:47;-23759.50;;;18.77;100.00
29385;BME280;16367;48.736;9.218;2023-09-19T08:44:51;-23748.00;;;18.40;100.00
29385;BME280;16367;48.736;9.218;2023-09-19T08:47:03;-23770.34;;;19.12;99.70
29385;BME280;16367;48.736;9.218;2023-09-19T08:49:19;-23762.47;;;18.87;99.84
29385;BME280;16367;48.736;9.218;2023-09-19T08:51:28;-23759.66;;;18.78;96.51
29385;BME280;16367;48.736;9.218;2023-09-19T08:53:41;-23754.78;;;18.62;93.20
29385;BME280;16367;48.736;9.218;2023-09-19T08:55:50;-23770.00;;;19.11;92.71
29385;BME280;16367;48.736;9.218;2023-09-19T08:58:00;-23778.03;;;19.37;92.24
29385;BME280;16367;48.736;9.218;2023-09-19T09:00:04;-23794.19;;;19.88;90.01
29385;BME280;16367;48.736;9.218;2023-09-19T09:02:12;-23815.72;;;20.57;84.88
29385;BME280;16367;48.736;9.218;2023-09-19T09:04:15;-23818.53;;;20.66;83.47
29385;BME280;16367;48.736;9.218;2023-09-19T09:06:19;-23807.38;;;20.31;83.10
29385;BME280;16367;48.736;9.218;2023-09-19T09:08:22;-23797.97;;;20.00;84.30
29385;BME280;16367;48.736;9.218;2023-09-19T09:10:26;-23813.97;;;20.52;80.41
29385;BME280;16367;48.736;9.218;2023-09-19T09:12:29;-23848.47;;;21.63;78.55
29385;BME280;16367;48.736;9.218;2023-09-19T09:14:32;-23845.97;;;21.54;76.82
29385;BME280;16367;48.736;9.218;2023-09-19T09:16:35;-23873.22;;;22.42;72.29
29385;BME280;16367;48.736;9.218;2023-09-19T09:18:38;-23827.78;;;20.96;77.47
29385;BME280;16367;48.736;9.218;2023-09-19T09:20:41;-23819.16;;;20.68;82.92
29385;BME280;16367;48.736;9.218;2023-09-19T09:22:52;-23804.72;;;20.22;88.02
29385;BME280;16367;48.736;9.218;2023-09-19T09:24:57;-23779.75;;;19.42;86.88
29385;BME280;16367;48.736;9.218;2023-09-19T09:27:03;-23788.25;;;19.69;84.30
29385;BME280;16367;48.736;9.218;2023-09-19T09:29:10;-23789.66;;;19.74;88.24
29385;BME280;16367;48.736;9.218;2023-09-19T09:31:22;-23782.44;;;19.51;83.52
29385;BME280;16367;48.736;9.218;2023-09-19T09:33:26;-23790.91;;;19.78;83.10
29385;BME280;16367;48.736;9.218;2023-09-19T09:35:30;-23808.19;;;20.33;79.88
29385;BME280;16367;48.736;9.218;2023-09-19T09:37:31;-23835.00;;;21.19;77.34
29385;BME280;16367;48.736;9.218;2023-09-19T09:39:36;-23813.50;;;20.50;83.18
29385;BME280;16367;48.736;9.218;2023-09-19T09:41:38;-23800.31;;;20.08;82.91
29385;BME280;16367;48.736;9.218;2023-09-19T09:43:43;-23782.44;;;19.51;85.53
29385;BME280;16367;48.736;9.218;2023-09-19T09:46:09;-23803.00;;;20.17;82.05
29385;BME280;16367;48.736;9.218;2023-09-19T09:48:34;-23845.66;;;21.53;74.70
29385;BME280;16367;48.736;9.218;2023-09-19T09:50:46;-23817.44;;;20.63;73.87
29385;BME280;16367;48.736;9.218;2023-09-19T09:52:57;-23815.84;;;20.58;74.20
29385;BME280;16367;48.736;9.218;2023-09-19T09:55:08;-23852.84;;;21.77;69.60
29385;BME280;16367;48.736;9.218;2023-09-19T09:57:11;-23840.63;;;21.37;69.08
29385;BME280;16367;48.736;9.218;2023-09-19T09:59:20;-23878.22;;;22.58;67.70
29385;BME280;16367;48.736;9.218;2023-09-19T10:01:25;-23892.63;;;23.05;64.98
29385;BME280;16367;48.736;9.218;2023-09-19T10:03:33;-23884.66;;;22.79;63.68
29385;BME280;16367;48.736;9.218;2023-09-19T10:05:44;-23900.75;;;23.31;61.79
29385;BME280;16367;48.736;9.218;2023-09-19T10:07:46;-23891.22;;;23.00;61.67
29385;BME280;16367;48.736;9.218;2023-09-19T10:09:51;-23876.50;;;22.53;63.68
29385;BME280;16367;48.736;9.218;2023-09-19T10:12:03;-23901.38;;;23.33;60.79
29385;BME280;16367;48.736;9.218;2023-09-19T10:14:11;-23908.56;;;23.56;61.24
29385;BME280;16367;48.736;9.218;2023-09-19T10:16:16;-23844.09;;;21.48;63.05
29385;BME280;16367;48.736;9.218;2023-09-19T10:18:23;-23868.84;;;22.28;62.62
29385;BME280;16367;48.736;9.218;2023-09-19T10:20:28;-23865.84;;;22.18;61.48
29385;BME280;16367;48.736;9.218;2023-09-19T10:22:39;-23872.75;;;22.41;60.42
29385;BME280;16367;48.736;9.218;2023-09-19T10:24:43;-23860.38;;;22.01;60.29
29385;BME280;16367;48.736;9.218;2023-09-19T10:27:04;-23827.78;;;20.96;59.22
29385;BME280;16367;48.736;9.218;2023-09-19T10:29:10;-23824.00;;;20.84;61.46
29385;BME280;16367;48.736;9.218;2023-09-19T10:31:19;-23843.44;;;21.46;60.86
29385;BME280;16367;48.736;9.218;2023-09-19T10:33:24;-23853.16;;;21.78;60.47
29385;BME280;16367;48.736;9.218;2023-09-19T10:35:28;-23868.03;;;22.25;58.34
29385;BME280;16367;48.736;9.218;2023-09-19T10:37:32;-23845.66;;;21.53;58.63
29385;BME280;16367;48.736;9.218;2023-09-19T10:39:35;-23836.41;;;21.24;58.69
29385;BME280;16367;48.736;9.218;2023-09-19T10:41:40;-23837.97;;;21.29;58.99
29385;BME280;16367;48.736;9.218;2023-09-19T10:43:45;-23829.97;;;21.03;58.67
29385;BME280;16367;48.736;9.218;2023-09-19T10:45:50;-23836.72;;;21.25;58.11
29385;BME280;16367;48.736;9.218;2023-09-19T10:47:56;-23827.47;;;20.95;58.49